createdAt,value
2022-09-28T00:04:10.270Z,99.90
2022-09-28T00:09:12.515Z,99.90
2022-09-28T00:14:15.398Z,99.90
2022-09-28T00:19:19.048Z,99.90
2022-09-28T00:24:25.195Z,99.90
2022-09-28T00:29:31.686Z,99.90
2022-09-28T00:34:37.429Z,99.90
2022-09-28T00:39:41.480Z,99.90
2022-09-28T00:44:53.601Z,99.90
2022-09-28T00:50:00.535Z,99.90
2022-09-28T00:55:06.312Z,99.90
2022-09-28T01:00:10.138Z,99.90
2022-09-28T01:05:14.995Z,99.90
2022-09-28T01:10:17.440Z,99.90
2022-09-28T01:15:21.941Z,99.90
2022-09-28T01:20:58.831Z,99.90
2022-09-28T01:26:18.875Z,99.90
2022-09-28T01:31:27.516Z,99.90
2022-09-28T01:36:34.952Z,99.90
2022-09-28T01:41:41.502Z,99.90
2022-09-28T01:46:48.131Z,99.90
2022-09-28T01:51:56.070Z,99.90
2022-09-28T01:57:06.806Z,99.90
2022-09-28T02:02:13.899Z,99.90
2022-09-28T02:07:21.472Z,99.90
2022-09-28T02:12:30.011Z,99.90
2022-09-28T02:17:32.191Z,99.90
2022-09-28T02:22:37.712Z,99.90
2022-09-28T02:27:46.367Z,99.90
2022-09-28T02:32:52.166Z,99.90
2022-09-28T02:37:56.379Z,99.90
2022-09-28T02:43:05.233Z,99.90
2022-09-28T02:48:31.457Z,99.90
2022-09-28T02:53:55.151Z,99.90
2022-09-28T02:59:09.062Z,99.90
2022-09-28T03:04:19.420Z,99.90
2022-09-28T03:09:25.843Z,99.90
2022-09-28T03:14:29.349Z,99.90
2022-09-28T03:19:33.543Z,99.90
2022-09-28T03:24:35.737Z,99.90
2022-09-28T03:29:40.755Z,99.90
2022-09-28T03:34:42.994Z,99.90
2022-09-28T03:39:45.180Z,99.90
2022-09-28T03:44:48.734Z,99.90
2022-09-28T03:49:51.059Z,99.90
2022-09-28T03:54:53.229Z,99.90
2022-09-28T03:59:56.780Z,99.90
2022-09-28T04:04:58.953Z,99.90
2022-09-28T04:10:01.155Z,99.90
2022-09-28T04:15:04.954Z,99.90
2022-09-28T04:20:08.169Z,99.90
2022-09-28T04:25:10.737Z,99.90
2022-09-28T04:30:15.239Z,99.90
2022-09-28T04:35:17.485Z,99.90
2022-09-28T04:40:19.760Z,99.90
2022-09-28T04:45:26.196Z,99.90
2022-09-28T04:50:28.479Z,99.90
2022-09-28T04:55:32.860Z,99.90
2022-09-28T05:00:36.483Z,99.90
2022-09-28T05:05:44.497Z,99.90
2022-09-28T05:10:47.137Z,99.90
2022-09-28T05:15:58.884Z,99.90
2022-09-28T05:21:05.774Z,99.90
2022-09-28T05:26:09.420Z,99.90
2022-09-28T05:31:12.934Z,99.90
2022-09-28T05:36:15.165Z,99.90
2022-09-28T05:41:17.364Z,99.90
2022-09-28T05:46:21.992Z,99.90
2022-09-28T05:51:24.855Z,99.90
2022-09-28T05:56:27.009Z,99.90
2022-09-28T06:01:30.567Z,99.90
2022-09-28T06:06:32.974Z,99.90
2022-09-28T06:11:35.364Z,99.90
2022-09-28T06:16:43.618Z,99.90
2022-09-28T06:21:46.042Z,99.90
2022-09-28T06:26:48.208Z,99.90
2022-09-28T06:31:51.941Z,99.90
2022-09-28T06:36:54.416Z,99.90
2022-09-28T06:41:56.596Z,99.90
2022-09-28T06:47:00.178Z,99.90
2022-09-28T06:52:02.782Z,99.90
2022-09-28T06:57:05.146Z,99.90
2022-09-28T07:02:12.491Z,99.90
2022-09-28T07:07:14.762Z,99.90
2022-09-28T07:12:17.095Z,99.90
2022-09-28T07:17:20.757Z,99.90
2022-09-28T07:22:37.018Z,99.90
2022-09-28T07:27:42.214Z,99.90
2022-09-28T07:32:46.874Z,99.90
2022-09-28T07:37:49.157Z,99.90
2022-09-28T07:42:51.400Z,99.90
2022-09-28T07:47:57.555Z,99.90
2022-09-28T07:53:00.805Z,99.90
2022-09-28T07:58:02.990Z,99.90
2022-09-28T08:03:06.579Z,99.90
2022-09-28T08:08:08.694Z,99.90
2022-09-28T08:13:11.068Z,99.90
2022-09-28T08:18:14.645Z,99.90
2022-09-28T08:23:17.250Z,99.90
2022-09-28T08:28:19.762Z,99.90
2022-09-28T08:33:23.486Z,99.90
2022-09-28T08:38:26.794Z,99.90
2022-09-28T08:44:01.201Z,99.90
2022-09-28T08:49:26.266Z,99.90
2022-09-28T08:54:46.075Z,99.90
2022-09-28T08:59:52.583Z,99.90
2022-09-28T09:04:57.227Z,99.90
2022-09-28T09:10:11.693Z,99.90
2022-09-28T09:15:34.842Z,99.90
2022-09-28T09:20:49.121Z,99.90
2022-09-28T09:25:55.216Z,99.90
2022-09-28T09:31:09.294Z,99.90
2022-09-28T09:36:25.380Z,99.90
2022-09-28T09:41:38.892Z,99.60
2022-09-28T09:46:45.725Z,99.90
2022-09-28T09:51:53.646Z,98.70
2022-09-28T09:57:00.753Z,98.60
2022-09-28T10:02:11.840Z,97.90
2022-09-28T10:07:23.659Z,96.90
2022-09-28T10:12:26.543Z,97.00
2022-09-28T10:17:28.741Z,97.30
2022-09-28T10:22:33.286Z,97.00
2022-09-28T10:27:37.496Z,97.10
2022-09-28T10:32:41.011Z,97.00
2022-09-28T10:37:55.230Z,94.50
2022-09-28T10:43:02.835Z,94.60
2022-09-28T10:48:17.757Z,92.90
2022-09-28T10:53:22.289Z,93.20
2022-09-28T10:58:29.835Z,92.30
2022-09-28T11:03:32.589Z,88.20
2022-09-28T11:08:39.674Z,87.20
2022-09-28T11:13:47.611Z,81.30
2022-09-28T11:18:50.149Z,80.30
2022-09-28T11:24:07.557Z,82.30
2022-09-28T11:29:26.812Z,84.90
2022-09-28T11:34:57.400Z,87.00
2022-09-28T11:40:12.559Z,87.50
2022-09-28T11:45:31.268Z,86.50
2022-09-28T11:50:44.326Z,84.60
2022-09-28T11:55:51.877Z,83.80
2022-09-28T12:00:59.231Z,83.80
2022-09-28T12:06:04.916Z,84.10
2022-09-28T12:11:15.714Z,84.00
2022-09-28T12:16:45.773Z,85.90
2022-09-28T12:21:51.315Z,80.90
2022-09-28T12:26:58.695Z,77.20
2022-09-28T12:32:08.472Z,76.60
2022-09-28T12:37:24.346Z,76.50
2022-09-28T12:42:46.307Z,77.60
2022-09-28T12:48:09.052Z,77.80
2022-09-28T12:53:35.320Z,80.80
2022-09-28T12:59:01.138Z,79.70
2022-09-28T13:04:36.671Z,79.00
2022-09-28T13:09:52.084Z,77.80
2022-09-28T13:15:24.928Z,75.90
2022-09-28T13:20:36.979Z,73.50
2022-09-28T13:25:44.796Z,71.60
2022-09-28T13:30:51.474Z,70.60
2022-09-28T13:35:53.796Z,68.00
2022-09-28T13:41:13.742Z,68.40
2022-09-28T13:46:27.131Z,68.20
2022-09-28T13:51:47.467Z,69.00
2022-09-28T13:56:56.008Z,67.90
2022-09-28T14:02:07.258Z,68.70
2022-09-28T14:07:12.759Z,67.90
2022-09-28T14:12:46.365Z,67.10
2022-09-28T14:17:59.077Z,68.10
2022-09-28T14:23:26.687Z,67.30
2022-09-28T14:28:44.972Z,66.40
2022-09-28T14:33:59.061Z,65.30
2022-09-28T14:39:18.953Z,66.00
2022-09-28T14:44:21.224Z,66.00
2022-09-28T14:50:00.639Z,66.30
2022-09-28T14:55:03.222Z,67.30
2022-09-28T15:00:16.372Z,67.10
2022-09-28T15:05:24.931Z,67.10
2022-09-28T15:10:32.277Z,67.20
2022-09-28T15:15:38.644Z,68.20
2022-09-28T15:20:46.672Z,70.20
2022-09-28T15:25:53.942Z,71.70
2022-09-28T15:31:02.671Z,72.80
2022-09-28T15:36:08.810Z,72.80
2022-09-28T15:41:11.819Z,74.20
2022-09-28T15:46:20.704Z,75.80
2022-09-28T15:51:25.724Z,77.40
2022-09-28T15:56:29.473Z,78.50
2022-09-28T16:01:37.145Z,79.00
2022-09-28T16:06:42.124Z,79.40
2022-09-28T16:11:44.301Z,80.40
2022-09-28T16:16:49.624Z,82.20
2022-09-28T16:21:55.801Z,84.30
2022-09-28T16:27:01.159Z,86.00
2022-09-28T16:32:37.748Z,88.00
2022-09-28T16:37:42.806Z,88.90
2022-09-28T16:42:49.341Z,89.60
2022-09-28T16:47:53.178Z,90.30
2022-09-28T16:53:19.909Z,89.50
2022-09-28T16:58:22.862Z,90.00
2022-09-28T17:03:25.941Z,90.50
2022-09-28T17:08:29.610Z,90.60
2022-09-28T17:13:34.954Z,91.00
2022-09-28T17:18:39.197Z,91.20
2022-09-28T17:23:42.828Z,91.20
2022-09-28T17:28:45.008Z,91.30
2022-09-28T17:33:47.269Z,91.80
2022-09-28T17:38:51.850Z,92.00
2022-09-28T17:43:53.929Z,92.30
2022-09-28T17:48:59.557Z,92.70
2022-09-28T17:54:03.480Z,93.50
2022-09-28T17:59:07.457Z,94.00
2022-09-28T18:04:22.929Z,94.70
2022-09-28T18:09:31.438Z,95.30
2022-09-28T18:14:33.851Z,95.90
2022-09-28T18:19:35.981Z,96.40
2022-09-28T18:24:39.509Z,96.70
2022-09-28T18:29:41.695Z,97.00
2022-09-28T18:34:43.916Z,97.30
2022-09-28T18:39:47.416Z,97.70
2022-09-28T18:44:52.275Z,97.80
2022-09-28T18:49:54.555Z,98.10
2022-09-28T18:54:58.243Z,98.00
2022-09-28T19:00:00.437Z,98.50
2022-09-28T19:05:03.065Z,99.00
2022-09-28T19:10:07.766Z,99.30
2022-09-28T19:15:10.342Z,99.90
2022-09-28T19:20:12.740Z,99.90
2022-09-28T19:25:17.350Z,99.90
2022-09-28T19:30:19.738Z,99.90
2022-09-28T19:35:22.286Z,99.90
2022-09-28T19:40:26.067Z,99.90
2022-09-28T19:45:28.286Z,99.90
2022-09-28T19:50:31.860Z,99.90
2022-09-28T19:55:37.315Z,99.90
2022-09-28T20:00:39.457Z,99.90
2022-09-28T20:05:42.531Z,99.90
2022-09-28T20:10:53.457Z,99.90
2022-09-28T20:15:56.482Z,99.90
2022-09-28T20:21:05.945Z,99.90
2022-09-28T20:26:10.543Z,99.90
2022-09-28T20:31:15.315Z,99.90
2022-09-28T20:36:19.306Z,99.90
2022-09-28T20:41:24.307Z,99.90
2022-09-28T20:46:26.882Z,99.90
2022-09-28T20:51:29.349Z,99.90
2022-09-28T20:56:37.848Z,99.90
2022-09-28T21:01:40.425Z,99.90
2022-09-28T21:06:43.641Z,99.90
2022-09-28T21:11:48.336Z,99.90
2022-09-28T21:16:50.798Z,99.90
2022-09-28T21:21:52.995Z,99.90
2022-09-28T21:26:56.694Z,99.90
2022-09-28T21:31:58.823Z,99.90
2022-09-28T21:37:00.884Z,99.90
2022-09-28T21:42:04.308Z,99.90
2022-09-28T21:47:06.405Z,99.90
2022-09-28T21:52:08.487Z,99.90
2022-09-28T21:57:12.104Z,99.90
2022-09-28T22:02:14.292Z,99.90
2022-09-28T22:07:16.354Z,99.90
2022-09-28T22:12:20.054Z,99.90
2022-09-28T22:17:22.228Z,99.90
2022-09-28T22:22:29.298Z,99.90
2022-09-28T22:27:33.022Z,99.90
2022-09-28T22:32:35.120Z,99.90
2022-09-28T22:37:37.196Z,99.90
2022-09-28T22:42:40.854Z,99.90
2022-09-28T22:47:43.300Z,99.90
2022-09-28T22:52:45.553Z,99.90
2022-09-28T22:57:49.016Z,99.90
2022-09-28T23:02:51.183Z,99.90
2022-09-28T23:07:53.426Z,99.90
2022-09-28T23:12:57.672Z,99.90
2022-09-28T23:17:59.791Z,99.90
2022-09-28T23:23:02.107Z,99.90
2022-09-28T23:28:05.620Z,99.90
2022-09-28T23:33:07.858Z,99.90
2022-09-28T23:38:13.612Z,99.90
2022-09-28T23:43:19.656Z,99.90
2022-09-28T23:48:21.800Z,99.90
2022-09-28T23:53:27.989Z,99.90
2022-09-28T23:58:31.443Z,99.90
